DLH4TW EDDV-EDDF
Flight info
| Callsign | DLH4TW |
|---|---|
| Flight time | N/A |
| Altitude | 17000 |
| Route | TOLTA T154 ROBAR T152 KERAX KERAX4D |
| Aircraft | A20N/M-SDE2E3FGIJ1LORWXYZ/HB1 |
Departure
| Time | N/A |
|---|---|
| Airport | Hannover Airport (EDDV) |
Arrival
| Time | 2026-04-15 08:27 |
|---|---|
| Airport | Frankfurt Main Airport (EDDF) |
| Time | Latitude | Longitude | Altitude | Speed | Heading |
|---|---|---|---|---|---|
| 2026-04-15 07:54 | 51.96979 | 9.47063 | 17269 ft | 378 kts | 176° |
| 2026-04-15 07:55 | 51.95250 | 9.47341 | 17271 ft | 377 kts | 175° |
| 2026-04-15 07:55 | 51.92639 | 9.47780 | 17287 ft | 378 kts | 175° |
| 2026-04-15 07:55 | 51.87403 | 9.48604 | 17290 ft | 378 kts | 176° |
| 2026-04-15 07:56 | 51.84783 | 9.48990 | 17276 ft | 378 kts | 176° |
| 2026-04-15 07:56 | 51.81319 | 9.49491 | 17291 ft | 377 kts | 176° |
| 2026-04-15 07:56 | 51.79550 | 9.49744 | 17289 ft | 378 kts | 176° |
| 2026-04-15 07:56 | 51.76927 | 9.50120 | 17292 ft | 378 kts | 176° |
| 2026-04-15 07:57 | 51.74310 | 9.50495 | 17289 ft | 378 kts | 176° |
| 2026-04-15 07:57 | 51.71721 | 9.50820 | 17278 ft | 377 kts | 181° |
| 2026-04-15 07:57 | 51.69130 | 9.50354 | 17289 ft | 375 kts | 191° |
| 2026-04-15 07:57 | 51.66556 | 9.49646 | 17288 ft | 375 kts | 192° |
| 2026-04-15 07:58 | 51.63992 | 9.48917 | 17277 ft | 374 kts | 192° |
| 2026-04-15 07:58 | 51.61424 | 9.48181 | 17284 ft | 375 kts | 192° |
| 2026-04-15 07:58 | 51.58856 | 9.47448 | 17291 ft | 375 kts | 192° |
| 2026-04-15 07:58 | 51.56290 | 9.46718 | 17286 ft | 375 kts | 192° |
| 2026-04-15 07:59 | 51.53721 | 9.45990 | 17278 ft | 375 kts | 192° |
| 2026-04-15 07:59 | 51.51154 | 9.45265 | 17296 ft | 375 kts | 192° |
| 2026-04-15 07:59 | 51.49244 | 9.44726 | 17294 ft | 375 kts | 192° |
| 2026-04-15 07:59 | 51.46676 | 9.44002 | 17296 ft | 375 kts | 192° |
| 2026-04-15 08:00 | 51.44104 | 9.43278 | 17296 ft | 375 kts | 192° |
| 2026-04-15 08:00 | 51.41537 | 9.42557 | 17296 ft | 375 kts | 192° |
| 2026-04-15 08:00 | 51.38963 | 9.41836 | 17294 ft | 375 kts | 192° |
| 2026-04-15 08:00 | 51.36394 | 9.41115 | 17291 ft | 375 kts | 192° |
| 2026-04-15 08:01 | 51.33823 | 9.40397 | 17294 ft | 375 kts | 191° |
| 2026-04-15 08:01 | 51.31253 | 9.39678 | 17292 ft | 375 kts | 192° |
| 2026-04-15 08:01 | 51.28681 | 9.38960 | 17291 ft | 375 kts | 192° |
| 2026-04-15 08:01 | 51.26109 | 9.38242 | 17289 ft | 375 kts | 191° |
| 2026-04-15 08:02 | 51.23538 | 9.37527 | 17289 ft | 375 kts | 191° |
| 2026-04-15 08:02 | 51.20967 | 9.36812 | 17292 ft | 375 kts | 191° |
| 2026-04-15 08:02 | 51.18448 | 9.35799 | 17293 ft | 373 kts | 204° |
| 2026-04-15 08:02 | 51.16150 | 9.33904 | 17290 ft | 372 kts | 210° |
| 2026-04-15 08:03 | 51.13884 | 9.31918 | 17292 ft | 372 kts | 211° |
| 2026-04-15 08:03 | 51.11618 | 9.29925 | 17291 ft | 372 kts | 211° |
| 2026-04-15 08:03 | 51.09382 | 9.27959 | 17291 ft | 372 kts | 211° |
| 2026-04-15 08:03 | 51.07111 | 9.25969 | 17293 ft | 372 kts | 210° |
| 2026-04-15 08:04 | 51.04842 | 9.23986 | 17294 ft | 373 kts | 210° |
| 2026-04-15 08:04 | 51.02568 | 9.22003 | 17292 ft | 373 kts | 210° |
| 2026-04-15 08:04 | 51.00295 | 9.20025 | 17295 ft | 373 kts | 210° |
| 2026-04-15 08:04 | 50.98028 | 9.18053 | 17148 ft | 370 kts | 210° |
| 2026-04-15 08:05 | 50.95773 | 9.16096 | 16816 ft | 368 kts | 210° |
| 2026-04-15 08:05 | 50.93537 | 9.14157 | 16559 ft | 366 kts | 210° |
| 2026-04-15 08:05 | 50.91305 | 9.12223 | 16306 ft | 366 kts | 210° |
| 2026-04-15 08:05 | 50.89076 | 9.10292 | 16050 ft | 364 kts | 210° |
| 2026-04-15 08:06 | 50.86863 | 9.08379 | 15798 ft | 361 kts | 210° |
| 2026-04-15 08:06 | 50.84662 | 9.06479 | 15548 ft | 359 kts | 210° |
| 2026-04-15 08:06 | 50.82500 | 9.04613 | 15302 ft | 358 kts | 210° |
| 2026-04-15 08:06 | 50.80323 | 9.02736 | 15066 ft | 356 kts | 210° |
| 2026-04-15 08:07 | 50.78153 | 9.00867 | 14821 ft | 354 kts | 210° |
| 2026-04-15 08:07 | 50.75997 | 8.99013 | 14584 ft | 352 kts | 210° |
| 2026-04-15 08:07 | 50.73852 | 8.97171 | 14347 ft | 350 kts | 210° |
| 2026-04-15 08:07 | 50.71715 | 8.95336 | 14103 ft | 348 kts | 210° |
| 2026-04-15 08:08 | 50.69593 | 8.93516 | 13842 ft | 347 kts | 210° |
| 2026-04-15 08:08 | 50.67470 | 8.91697 | 13577 ft | 347 kts | 210° |
| 2026-04-15 08:08 | 50.65357 | 8.89889 | 13311 ft | 345 kts | 210° |
| 2026-04-15 08:08 | 50.63249 | 8.88084 | 13050 ft | 344 kts | 210° |
| 2026-04-15 08:09 | 50.61176 | 8.86313 | 12794 ft | 344 kts | 210° |
| 2026-04-15 08:09 | 50.59078 | 8.84522 | 12534 ft | 342 kts | 209° |
| 2026-04-15 08:09 | 50.56986 | 8.82740 | 12277 ft | 342 kts | 209° |
| 2026-04-15 08:09 | 50.54898 | 8.80962 | 12025 ft | 340 kts | 209° |
| 2026-04-15 08:10 | 50.52818 | 8.79193 | 11776 ft | 340 kts | 209° |
| 2026-04-15 08:10 | 50.50744 | 8.77430 | 11529 ft | 339 kts | 209° |
| 2026-04-15 08:10 | 50.48673 | 8.75673 | 11342 ft | 337 kts | 209° |
| 2026-04-15 08:10 | 50.46611 | 8.73925 | 11293 ft | 338 kts | 209° |
| 2026-04-15 08:11 | 50.44539 | 8.72170 | 11288 ft | 339 kts | 209° |
| 2026-04-15 08:11 | 50.42465 | 8.70415 | 11286 ft | 339 kts | 209° |
| 2026-04-15 08:11 | 50.40392 | 8.68663 | 11286 ft | 339 kts | 209° |
| 2026-04-15 08:11 | 50.38347 | 8.66936 | 11292 ft | 339 kts | 209° |
| 2026-04-15 08:12 | 50.36275 | 8.65187 | 11293 ft | 339 kts | 208° |
| 2026-04-15 08:12 | 50.34453 | 8.63653 | 11287 ft | 338 kts | 209° |
| 2026-04-15 08:12 | 50.32381 | 8.61908 | 11282 ft | 339 kts | 209° |
| 2026-04-15 08:12 | 50.30304 | 8.60161 | 11298 ft | 339 kts | 209° |
| 2026-04-15 08:13 | 50.28232 | 8.58419 | 11294 ft | 338 kts | 209° |
| 2026-04-15 08:13 | 50.26158 | 8.56678 | 11291 ft | 338 kts | 209° |
| 2026-04-15 08:13 | 50.24089 | 8.54941 | 11292 ft | 338 kts | 209° |
| 2026-04-15 08:13 | 50.22042 | 8.53225 | 11293 ft | 338 kts | 208° |
| 2026-04-15 08:14 | 50.19968 | 8.51490 | 11294 ft | 338 kts | 208° |
| 2026-04-15 08:14 | 50.17891 | 8.49753 | 11280 ft | 339 kts | 208° |
| 2026-04-15 08:14 | 50.15809 | 8.48014 | 11108 ft | 340 kts | 208° |
| 2026-04-15 08:14 | 50.13731 | 8.46280 | 10857 ft | 338 kts | 209° |
| 2026-04-15 08:15 | 50.11864 | 8.44137 | 10689 ft | 330 kts | 226° |
| 2026-04-15 08:15 | 50.10586 | 8.41277 | 10573 ft | 316 kts | 245° |
| 2026-04-15 08:15 | 50.09805 | 8.38155 | 10451 ft | 303 kts | 250° |
| 2026-04-15 08:15 | 50.09081 | 8.35139 | 10220 ft | 294 kts | 249° |
| 2026-04-15 08:16 | 50.08369 | 8.32183 | 9964 ft | 286 kts | 249° |
| 2026-04-15 08:16 | 50.07678 | 8.29329 | 9835 ft | 288 kts | 249° |
| 2026-04-15 08:16 | 50.06971 | 8.26410 | 9704 ft | 287 kts | 249° |
| 2026-04-15 08:16 | 50.06267 | 8.23514 | 9569 ft | 286 kts | 249° |
| 2026-04-15 08:17 | 50.05564 | 8.20629 | 9437 ft | 285 kts | 249° |
| 2026-04-15 08:17 | 50.04864 | 8.17759 | 9201 ft | 282 kts | 249° |
| 2026-04-15 08:17 | 50.04170 | 8.14915 | 8882 ft | 279 kts | 249° |
| 2026-04-15 08:17 | 50.03497 | 8.12159 | 8741 ft | 264 kts | 249° |
| 2026-04-15 08:18 | 50.03009 | 8.09501 | 8551 ft | 249 kts | 257° |
| 2026-04-15 08:18 | 50.02506 | 8.06958 | 8152 ft | 245 kts | 248° |
| 2026-04-15 08:18 | 50.01837 | 8.04531 | 7694 ft | 243 kts | 245° |
| 2026-04-15 08:18 | 50.01151 | 8.02173 | 7275 ft | 242 kts | 240° |
| 2026-04-15 08:19 | 50.00029 | 8.00294 | 6859 ft | 239 kts | 209° |
| 2026-04-15 08:19 | 49.98456 | 7.99607 | 6533 ft | 236 kts | 178° |
| 2026-04-15 08:19 | 49.96904 | 8.00288 | 6220 ft | 233 kts | 147° |
| 2026-04-15 08:19 | 49.95823 | 8.02099 | 5830 ft | 231 kts | 115° |
| 2026-04-15 08:20 | 49.95359 | 8.04476 | 5493 ft | 229 kts | 103° |
| 2026-04-15 08:20 | 49.94988 | 8.06872 | 5202 ft | 227 kts | 103° |
| 2026-04-15 08:20 | 49.94659 | 8.09226 | 5010 ft | 218 kts | 96° |
| 2026-04-15 08:20 | 49.94708 | 8.11463 | 4986 ft | 205 kts | 80° |
| 2026-04-15 08:21 | 49.95066 | 8.13598 | 4990 ft | 208 kts | 72° |
| 2026-04-15 08:21 | 49.95552 | 8.15706 | 4994 ft | 207 kts | 70° |
| 2026-04-15 08:21 | 49.96059 | 8.17796 | 4949 ft | 217 kts | 70° |
| 2026-04-15 08:21 | 49.96604 | 8.20079 | 4712 ft | 227 kts | 70° |
| 2026-04-15 08:22 | 49.97153 | 8.22376 | 4354 ft | 226 kts | 70° |
| 2026-04-15 08:22 | 49.97698 | 8.24636 | 3993 ft | 220 kts | 70° |
| 2026-04-15 08:22 | 49.98225 | 8.26827 | 3680 ft | 213 kts | 70° |
| 2026-04-15 08:22 | 49.98719 | 8.28889 | 3362 ft | 193 kts | 70° |
| 2026-04-15 08:23 | 49.99170 | 8.30770 | 3092 ft | 178 kts | 71° |
| 2026-04-15 08:23 | 49.99577 | 8.32476 | 2888 ft | 164 kts | 70° |
| 2026-04-15 08:23 | 49.99977 | 8.34145 | 2635 ft | 170 kts | 71° |
| 2026-04-15 08:23 | 50.00391 | 8.35860 | 2381 ft | 168 kts | 71° |
| 2026-04-15 08:24 | 50.00793 | 8.37556 | 2136 ft | 162 kts | 71° |
| 2026-04-15 08:24 | 50.01175 | 8.39135 | 1912 ft | 150 kts | 71° |
| 2026-04-15 08:24 | 50.01520 | 8.40582 | 1690 ft | 138 kts | 71° |
| 2026-04-15 08:24 | 50.01845 | 8.41936 | 1484 ft | 129 kts | 71° |
| 2026-04-15 08:25 | 50.02154 | 8.43220 | 1285 ft | 128 kts | 70° |
| 2026-04-15 08:25 | 50.02471 | 8.44521 | 1103 ft | 131 kts | 70° |
| 2026-04-15 08:25 | 50.02783 | 8.45844 | 939 ft | 129 kts | 69° |
| 2026-04-15 08:25 | 50.03092 | 8.47159 | 748 ft | 130 kts | 69° |
| 2026-04-15 08:26 | 50.03406 | 8.48471 | 576 ft | 128 kts | 68° |
| 2026-04-15 08:26 | 50.03722 | 8.49771 | 366 ft | 128 kts | 68° |
| 2026-04-15 08:26 | 50.04014 | 8.50991 | 326 ft | 110 kts | 68° |
| 2026-04-15 08:26 | 50.04244 | 8.51934 | 337 ft | 81 kts | 70° |
| 2026-04-15 08:27 | 50.04384 | 8.52599 | 340 ft | 46 kts | 84° |
| 2026-04-15 08:27 | 50.04370 | 8.53029 | 356 ft | 29 kts | 101° |
| 2026-04-15 08:27 | 50.04363 | 8.53326 | 359 ft | 26 kts | 75° |
| 2026-04-15 08:27 | 50.04401 | 8.53603 | 359 ft | 28 kts | 88° |
| 2026-04-15 08:28 | 50.04419 | 8.53876 | 355 ft | 24 kts | 83° |
| 2026-04-15 08:28 | 50.04439 | 8.54148 | 355 ft | 25 kts | 85° |
| 2026-04-15 08:28 | 50.04449 | 8.54381 | 356 ft | 17 kts | 86° |
| 2026-04-15 08:28 | 50.04436 | 8.54570 | 359 ft | 19 kts | 108° |
| 2026-04-15 08:29 | 50.04350 | 8.54734 | 356 ft | 20 kts | 145° |
| 2026-04-15 08:29 | 50.04263 | 8.54800 | 358 ft | 11 kts | 160° |
| 2026-04-15 08:29 | 50.04184 | 8.54843 | 360 ft | 13 kts | 159° |
| 2026-04-15 08:29 | 50.04096 | 8.54896 | 359 ft | 14 kts | 160° |
| 2026-04-15 08:30 | 50.04024 | 8.54958 | 360 ft | 12 kts | 119° |
| 2026-04-15 08:30 | 50.04036 | 8.55088 | 356 ft | 13 kts | 69° |
| 2026-04-15 08:30 | 50.04071 | 8.55236 | 358 ft | 16 kts | 70° |
| 2026-04-15 08:30 | 50.04110 | 8.55405 | 356 ft | 18 kts | 69° |
| 2026-04-15 08:31 | 50.04155 | 8.55591 | 360 ft | 19 kts | 69° |
| 2026-04-15 08:31 | 50.04203 | 8.55790 | 358 ft | 19 kts | 69° |
| 2026-04-15 08:31 | 50.04238 | 8.55924 | 358 ft | 11 kts | 61° |
| 2026-04-15 08:31 | 50.04307 | 8.55947 | 358 ft | 12 kts | 340° |
| 2026-04-15 08:32 | 50.04395 | 8.55907 | 356 ft | 15 kts | 358° |
| 2026-04-15 08:32 | 50.04503 | 8.55948 | 362 ft | 17 kts | 16° |
| 2026-04-15 08:32 | 50.04583 | 8.56078 | 356 ft | 18 kts | 71° |
| 2026-04-15 08:32 | 50.04628 | 8.56273 | 356 ft | 20 kts | 69° |
| 2026-04-15 08:33 | 50.04667 | 8.56441 | 357 ft | 13 kts | 70° |
| 2026-04-15 08:33 | 50.04711 | 8.56569 | 358 ft | 12 kts | 54° |
| 2026-04-15 08:33 | 50.04727 | 8.56603 | 356 ft | 4 kts | 54° |
| 2026-04-15 08:33 | 50.04753 | 8.56614 | 359 ft | 4 kts | 352° |
| 2026-04-15 08:34 | 50.04793 | 8.56594 | 359 ft | 7 kts | 339° |
| 2026-04-15 08:34 | 50.04806 | 8.56586 | 358 ft | 0 kts | 339° |